Time;durP1;ratioP1;P1;durP2;ratioP2;P2;SDS_P1;SDS_P2;PMS_P1;PMS_P2;Temp;Humidity;BMP_temperature;BMP_pressure;BME280_temperature;BME280_humidity;BME280_pressure;Samples;Min_cycle;Max_cycle;Signal;HPM_P1;HPM_P2
2022/03/25 00:02:17;;;;;;;;;;;;;;;12.92;25.75;99929.25;4996952;28;19972;-84
2022/03/25 00:04:43;;;;;;;;;;;;;;;12.98;25.87;99915.91;5009400;28;19960;-83
2022/03/25 00:07:08;;;;;;;;;;;;;;;13.07;25.72;99913.91;5004686;28;19967;-83
2022/03/25 00:09:34;;;;;;;;;;;;;;;13.11;25.41;99913.84;4990734;28;19922;-83
2022/03/25 00:11:59;;;;;;;;;;;;;;;13.10;24.98;99915.63;5005579;28;20353;-83
2022/03/25 00:14:25;;;;;;;;;;;;;;;13.11;25.21;99895.31;5010443;28;20450;-84
2022/03/25 00:16:50;;;;;;;;;;;;;;;13.30;25.60;99907.25;5007583;28;19930;-83
2022/03/25 00:19:16;;;;;;;;;;;;;;;13.28;25.46;99914.34;4991002;28;20064;-84
2022/03/25 00:21:41;;;;;;;;;;;;;;;13.45;24.76;99910.47;5035803;28;19971;-84
2022/03/25 00:24:07;;;;;;;;;;;;;;;13.48;24.96;99905.97;5009806;28;19921;-84
2022/03/25 00:26:32;;;;;;;;;;;;;;;13.48;24.78;99907.75;5010132;28;20451;-83
2022/03/25 00:28:58;;;;;;;;;;;;;;;13.62;24.48;99910.94;4990481;28;19930;-85
2022/03/25 00:31:23;;;;;;;;;;;;;;;13.58;24.47;99912.78;4990858;28;19921;-83
2022/03/25 00:33:51;;;;;;;;;;;;;;;13.57;24.71;99908.38;5007623;28;19922;-85
2022/03/25 00:36:21;;;;;;;;;;;;;;;13.63;24.15;99912.69;5010079;28;19953;-84
2022/03/25 00:38:46;;;;;;;;;;;;;;;13.74;24.49;99915.94;5009796;28;20084;-83
2022/03/25 00:41:12;;;;;;;;;;;;;;;13.65;24.55;99915.28;5009644;28;20463;-83
2022/03/25 00:43:42;;;;;;;;;;;;;;;13.63;24.63;99917.97;4994292;28;19929;-84
2022/03/25 00:46:07;;;;;;;;;;;;;;;13.62;24.90;99910.94;4990107;28;19922;-84
2022/03/25 00:48:32;;;;;;;;;;;;;;;13.72;24.23;99914.25;5004291;28;19928;-84
2022/03/25 00:50:58;;;;;;;;;;;;;;;13.54;25.21;99918.19;5008927;28;19932;-84
2022/03/25 00:53:25;;;;;;;;;;;;;;;13.47;24.96;99920.13;5008532;28;19967;-85
2022/03/25 00:55:51;;;;;;;;;;;;;;;13.53;24.77;99929.69;5009711;28;19964;-86
2022/03/25 00:58:18;;;;;;;;;;;;;;;13.36;25.54;99920.38;5041652;28;20323;-85
2022/03/25 01:00:44;;;;;;;;;;;;;;;13.34;24.99;99921.31;5009732;28;20045;-84
2022/03/25 01:03:09;;;;;;;;;;;;;;;13.22;25.91;99912.72;5041183;28;20521;-84
2022/03/25 01:05:35;;;;;;;;;;;;;;;13.17;25.53;99911.91;5008952;28;20020;-84
2022/03/25 01:08:00;;;;;;;;;;;;;;;13.04;26.38;99913.13;5009053;28;19971;-84
2022/03/25 01:10:25;;;;;;;;;;;;;;;12.97;25.54;99909.72;5003184;28;19929;-85
2022/03/25 01:12:51;;;;;;;;;;;;;;;12.94;26.42;99917.72;4997357;28;20418;-84
2022/03/25 01:15:16;;;;;;;;;;;;;;;12.80;26.45;99901.25;5008622;28;19926;-85
2022/03/25 01:17:41;;;;;;;;;;;;;;;12.74;26.44;99910.19;5008057;28;19932;-84
2022/03/25 01:20:09;;;;;;;;;;;;;;;12.62;26.32;99905.13;5008025;28;19928;-84
2022/03/25 01:22:34;;;;;;;;;;;;;;;12.59;26.74;99899.91;5006540;28;19922;-84
2022/03/25 01:24:59;;;;;;;;;;;;;;;12.51;27.08;99903.59;5008789;28;19928;-84
2022/03/25 01:27:25;;;;;;;;;;;;;;;12.45;26.74;99901.06;5039330;28;19948;-84
2022/03/25 01:29:50;;;;;;;;;;;;;;;12.48;26.92;99894.84;5008789;28;19924;-85
2022/03/25 01:32:16;;;;;;;;;;;;;;;12.43;27.28;99900.22;5006802;28;19925;-84
2022/03/25 01:34:41;;;;;;;;;;;;;;;12.34;27.72;99897.75;4992073;28;19930;-84
2022/03/25 01:37:07;;;;;;;;;;;;;;;12.19;27.50;99896.28;4989480;28;19922;-85
2022/03/25 01:39:32;;;;;;;;;;;;;;;12.18;27.82;99899.81;4987827;28;20423;-85
2022/03/25 01:41:57;;;;;;;;;;;;;;;12.04;27.80;99905.34;4988357;28;20723;-85
2022/03/25 01:44:26;;;;;;;;;;;;;;;12.16;27.78;99915.72;5007941;28;19925;-83
2022/03/25 01:46:55;;;;;;;;;;;;;;;11.99;27.62;99916.00;5008308;28;20308;-83
2022/03/25 01:49:21;;;;;;;;;;;;;;;11.89;28.39;99905.59;5007613;28;20004;-85
2022/03/25 01:51:49;;;;;;;;;;;;;;;12.00;28.14;99906.28;5006260;28;20056;-83
2022/03/25 01:54:19;;;;;;;;;;;;;;;11.99;28.23;99904.56;5008583;28;19921;-83
2022/03/25 01:56:45;;;;;;;;;;;;;;;11.77;28.43;99904.91;5007502;28;20375;-83
2022/03/25 01:59:10;;;;;;;;;;;;;;;11.97;28.03;99901.06;5008816;28;19922;-83
2022/03/25 02:01:36;;;;;;;;;;;;;;;11.85;28.21;99910.06;5007494;28;20312;-84
2022/03/25 02:04:01;;;;;;;;;;;;;;;11.86;27.84;99909.13;4991898;28;20035;-83
2022/03/25 02:06:27;;;;;;;;;;;;;;;11.95;28.26;99916.09;4988649;28;19921;-83
2022/03/25 02:08:52;;;;;;;;;;;;;;;11.86;28.08;99913.56;4988511;28;19940;-84
2022/03/25 02:11:18;;;;;;;;;;;;;;;11.92;28.36;99924.94;5000798;28;19925;-84
2022/03/25 02:13:43;;;;;;;;;;;;;;;12.02;27.85;99920.38;5008179;28;20058;-83
2022/03/25 02:16:09;;;;;;;;;;;;;;;11.97;28.07;99922.22;5007346;28;20024;-83
2022/03/25 02:18:34;;;;;;;;;;;;;;;12.03;28.13;99931.81;4995859;28;19984;-83
2022/03/25 02:21:00;;;;;;;;;;;;;;;12.00;28.68;99927.44;4989768;28;19922;-84
2022/03/25 02:23:25;;;;;;;;;;;;;;;11.77;28.55;99923.41;4988323;28;20404;-85
2022/03/25 02:25:51;;;;;;;;;;;;;;;11.73;28.37;99919.06;4988597;28;20043;-84
2022/03/25 02:28:17;;;;;;;;;;;;;;;11.72;29.03;99917.28;4988664;28;19921;-84
2022/03/25 02:30:43;;;;;;;;;;;;;;;11.76;29.04;99912.84;4994789;28;19926;-85
2022/03/25 02:33:08;;;;;;;;;;;;;;;11.79;28.20;99926.00;5000226;28;19972;-84
2022/03/25 02:35:46;;;;;;;;;;;;;;;11.79;28.41;99920.72;4988462;28;19918;-84
2022/03/25 02:38:12;;;;;;;;;;;;;;;11.73;28.63;99926.13;5019800;28;19941;-83
2022/03/25 02:40:38;;;;;;;;;;;;;;;11.80;28.26;99931.28;4995719;28;19922;-83
2022/03/25 02:43:04;;;;;;;;;;;;;;;11.69;28.59;99930.56;5007481;28;20307;-85
2022/03/25 02:45:29;;;;;;;;;;;;;;;11.87;28.28;99944.41;5007630;28;19948;-84
2022/03/25 02:47:55;;;;;;;;;;;;;;;11.68;29.21;99934.13;5002747;28;19929;-84
2022/03/25 02:50:21;;;;;;;;;;;;;;;11.56;29.41;99939.59;4992390;28;19925;-84
2022/03/25 02:52:46;;;;;;;;;;;;;;;11.38;29.36;99948.66;5007168;28;19925;-84
2022/03/25 02:55:12;;;;;;;;;;;;;;;11.39;29.37;99947.75;5007768;28;19913;-84
2022/03/25 02:57:37;;;;;;;;;;;;;;;11.40;29.28;99941.56;5006746;28;20020;-84
2022/03/25 03:00:04;;;;;;;;;;;;;;;11.42;29.70;99953.00;5006987;28;20012;-85
2022/03/25 03:02:29;;;;;;;;;;;;;;;11.35;29.17;99946.91;5006690;28;20000;-84
2022/03/25 03:04:55;;;;;;;;;;;;;;;11.24;29.62;99952.34;4987511;28;20020;-85
2022/03/25 03:07:21;;;;;;;;;;;;;;;11.17;29.59;99950.69;5007662;28;20023;-84
2022/03/25 03:09:46;;;;;;;;;;;;;;;11.21;30.17;99949.75;5036680;28;19921;-85
2022/03/25 03:12:12;;;;;;;;;;;;;;;11.15;29.98;99948.97;4987405;28;19957;-83
2022/03/25 03:14:38;;;;;;;;;;;;;;;11.01;30.27;99957.06;5027727;28;19975;-83
2022/03/25 03:17:04;;;;;;;;;;;;;;;10.97;30.45;99948.31;5006641;28;20041;-84
2022/03/25 03:19:30;;;;;;;;;;;;;;;10.86;30.21;99948.44;5006366;28;19928;-83
2022/03/25 03:21:55;;;;;;;;;;;;;;;10.86;30.17;99945.81;4988621;28;19922;-84
2022/03/25 03:24:20;;;;;;;;;;;;;;;10.67;30.60;99946.91;5002610;28;19971;-84
2022/03/25 03:26:46;;;;;;;;;;;;;;;10.80;31.13;99943.25;4987753;28;19925;-85
2022/03/25 03:29:12;;;;;;;;;;;;;;;10.77;30.80;99945.91;4992266;28;20335;-84
2022/03/25 03:31:37;;;;;;;;;;;;;;;10.97;30.52;99939.50;5022244;28;20296;-85
2022/03/25 03:34:03;;;;;;;;;;;;;;;10.89;30.88;99936.97;4991495;28;19948;-84
2022/03/25 03:36:28;;;;;;;;;;;;;;;10.86;30.61;99937.00;5006743;28;19932;-84
2022/03/25 03:38:53;;;;;;;;;;;;;;;10.83;30.10;99935.28;5010836;28;19917;-84
2022/03/25 03:41:19;;;;;;;;;;;;;;;10.86;30.54;99934.34;4996465;28;20020;-85
2022/03/25 03:43:44;;;;;;;;;;;;;;;11.07;30.53;99927.94;4991344;28;20012;-84
2022/03/25 03:46:10;;;;;;;;;;;;;;;11.03;30.14;99926.22;4994721;28;20064;-84
2022/03/25 03:48:35;;;;;;;;;;;;;;;10.82;30.97;99924.75;4998548;28;20723;-83
2022/03/25 03:51:01;;;;;;;;;;;;;;;10.72;30.62;99935.41;5005862;28;19925;-84
2022/03/25 03:53:26;;;;;;;;;;;;;;;10.68;30.72;99935.47;5025373;28;19925;-84
2022/03/25 03:55:52;;;;;;;;;;;;;;;10.72;30.55;99939.81;5010497;28;20008;-85
2022/03/25 03:58:17;;;;;;;;;;;;;;;10.61;30.89;99926.72;5010086;28;19917;-85
2022/03/25 04:00:42;;;;;;;;;;;;;;;10.71;31.17;99930.16;5023323;28;20396;-85
2022/03/25 04:03:08;;;;;;;;;;;;;;;10.73;31.21;99933.66;5010484;28;19917;-88
2022/03/25 04:05:33;;;;;;;;;;;;;;;10.72;30.53;99929.25;5009058;28;19921;-84
2022/03/25 04:07:58;;;;;;;;;;;;;;;10.57;30.95;99928.53;5001194;28;20396;-83
2022/03/25 04:10:24;;;;;;;;;;;;;;;10.63;30.35;99930.25;5004315;28;20100;-85
2022/03/25 04:12:49;;;;;;;;;;;;;;;10.80;30.24;99926.50;5001934;28;20030;-86
2022/03/25 04:15:16;;;;;;;;;;;;;;;10.81;30.22;99925.63;5013108;28;19982;-86
2022/03/25 04:17:42;;;;;;;;;;;;;;;10.74;30.75;99932.75;5030483;28;19925;-87
2022/03/25 04:20:08;;;;;;;;;;;;;;;10.77;30.55;99939.75;5007548;28;19926;-85
2022/03/25 04:22:33;;;;;;;;;;;;;;;10.75;30.83;99935.38;5004631;28;19925;-85
2022/03/25 04:24:59;;;;;;;;;;;;;;;10.86;30.83;99929.97;4989980;28;20047;-88
2022/03/25 04:27:24;;;;;;;;;;;;;;;10.81;30.21;99929.13;5021882;28;19929;-86
2022/03/25 04:29:50;;;;;;;;;;;;;;;10.83;30.57;99927.38;4990894;28;19918;-86
2022/03/25 04:32:15;;;;;;;;;;;;;;;10.96;30.69;99927.22;5038291;28;19947;-86
2022/03/25 04:34:41;;;;;;;;;;;;;;;10.86;30.18;99934.34;5002714;28;20403;-84
2022/03/25 04:37:09;;;;;;;;;;;;;;;10.94;30.19;99932.53;5019338;28;19925;-86
2022/03/25 04:39:34;;;;;;;;;;;;;;;10.93;30.30;99936.03;5016972;28;19960;-87
2022/03/25 04:42:00;;;;;;;;;;;;;;;11.07;30.06;99942.00;5015619;28;19960;-85
2022/03/25 04:44:25;;;;;;;;;;;;;;;11.09;30.22;99944.63;5008468;28;19988;-84
2022/03/25 04:46:51;;;;;;;;;;;;;;;11.31;29.61;99949.63;5019525;28;19929;-84
2022/03/25 04:49:16;;;;;;;;;;;;;;;11.34;29.22;99953.09;5022949;28;19992;-85
2022/03/25 04:51:41;;;;;;;;;;;;;;;11.37;29.57;99954.81;5007767;28;20026;-85
2022/03/25 04:54:07;;;;;;;;;;;;;;;11.51;28.88;99959.91;5044608;28;19971;-84
2022/03/25 04:56:34;;;;;;;;;;;;;;;11.52;29.06;99957.22;4990454;28;19932;-84
2022/03/25 04:59:00;;;;;;;;;;;;;;;11.65;29.06;99964.09;5022537;28;19922;-84
2022/03/25 05:01:25;;;;;;;;;;;;;;;11.74;28.82;99960.44;4989588;28;20718;-85
2022/03/25 05:03:50;;;;;;;;;;;;;;;11.87;28.49;99971.69;4990213;28;19933;-87
2022/03/25 05:06:16;;;;;;;;;;;;;;;11.86;28.46;99974.34;5022875;28;19925;-84
2022/03/25 05:08:41;;;;;;;;;;;;;;;11.96;28.66;99978.66;5024155;28;19925;-87
2022/03/25 05:11:08;;;;;;;;;;;;;;;12.06;28.48;99982.88;5001648;28;19925;-86
2022/03/25 05:13:34;;;;;;;;;;;;;;;11.83;29.94;99992.03;5021552;28;19922;-86
2022/03/25 05:15:59;;;;;;;;;;;;;;;11.75;30.70;99980.66;5038464;28;19928;-84
2022/03/25 05:18:24;;;;;;;;;;;;;;;11.52;31.37;99988.06;5009540;28;19921;-85
2022/03/25 05:20:50;;;;;;;;;;;;;;;11.49;31.23;99988.13;4998151;28;19933;-85
2022/03/25 05:23:15;;;;;;;;;;;;;;;11.51;31.61;99984.56;5007032;28;19932;-84
2022/03/25 05:25:41;;;;;;;;;;;;;;;11.67;31.35;99994.91;5009173;28;19929;-84
2022/03/25 05:28:06;;;;;;;;;;;;;;;11.82;30.00;99992.03;5040752;28;20281;-85
2022/03/25 05:30:32;;;;;;;;;;;;;;;11.91;29.74;99996.28;5008522;28;19997;-84
2022/03/25 05:32:58;;;;;;;;;;;;;;;12.17;29.20;100001.19;5007977;28;19975;-84
2022/03/25 05:35:24;;;;;;;;;;;;;;;12.11;29.82;100011.88;5008152;28;19928;-86
2022/03/25 05:37:50;;;;;;;;;;;;;;;11.21;32.65;100002.56;4991116;28;20437;-85
2022/03/25 05:40:16;;;;;;;;;;;;;;;10.75;33.10;100011.00;5018928;28;20024;-88
2022/03/25 05:42:42;;;;;;;;;;;;;;;11.19;32.61;100025.47;5024194;28;19969;-87
2022/03/25 05:45:07;;;;;;;;;;;;;;;11.63;30.96;100016.09;5020915;28;19948;-85
2022/03/25 05:47:37;;;;;;;;;;;;;;;11.57;31.92;100010.00;5009173;28;19928;-82
2022/03/25 05:50:04;;;;;;;;;;;;;;;11.99;31.61;100011.19;5008782;28;19928;-83
2022/03/25 05:52:29;;;;;;;;;;;;;;;12.18;31.59;100010.88;5007045;28;19956;-83
2022/03/25 05:54:54;;;;;;;;;;;;;;;12.31;31.82;100020.38;4993336;28;19926;-83
2022/03/25 05:57:20;;;;;;;;;;;;;;;12.05;32.67;100026.09;5002189;28;20024;-83
2022/03/25 05:59:46;;;;;;;;;;;;;;;12.28;32.43;100023.06;5039628;28;19921;-83
2022/03/25 06:02:11;;;;;;;;;;;;;;;12.54;31.75;100019.97;5023190;28;20021;-83
2022/03/25 06:04:36;;;;;;;;;;;;;;;12.70;31.83;100023.19;5007327;28;20433;-83
2022/03/25 06:07:02;;;;;;;;;;;;;;;12.99;32.06;100032.38;4996906;28;19925;-83
2022/03/25 06:09:27;;;;;;;;;;;;;;;13.26;30.55;100030.06;5012094;28;19926;-86
2022/03/25 06:11:53;;;;;;;;;;;;;;;13.68;29.77;100021.25;5004110;28;19941;-83
2022/03/25 06:14:18;;;;;;;;;;;;;;;13.73;30.27;100033.50;5006584;28;19975;-83
2022/03/25 06:16:44;;;;;;;;;;;;;;;14.25;28.02;100023.44;5038687;28;19922;-83
2022/03/25 06:19:10;;;;;;;;;;;;;;;14.19;27.90;100023.56;5006838;28;19966;-83
2022/03/25 06:21:35;;;;;;;;;;;;;;;14.50;28.04;100025.47;5007205;28;20730;-81
2022/03/25 06:24:00;;;;;;;;;;;;;;;14.47;28.54;100022.88;5007055;28;20364;-82
2022/03/25 06:26:26;;;;;;;;;;;;;;;14.58;28.84;100026.16;5037697;28;19925;-82
2022/03/25 06:28:51;;;;;;;;;;;;;;;14.63;27.76;100024.28;5007916;28;19928;-82
2022/03/25 06:31:16;;;;;;;;;;;;;;;14.74;27.75;100021.31;5008249;28;19996;-85
2022/03/25 06:33:42;;;;;;;;;;;;;;;15.02;27.17;100025.88;5008010;28;20021;-85
2022/03/25 06:36:09;;;;;;;;;;;;;;;14.94;27.15;100027.88;5007868;28;19929;-85
2022/03/25 06:38:34;;;;;;;;;;;;;;;15.18;26.93;100023.66;5007520;28;19924;-82
2022/03/25 06:41:01;;;;;;;;;;;;;;;15.15;26.78;100027.28;5007000;28;19921;-83
2022/03/25 06:43:27;;;;;;;;;;;;;;;15.22;26.24;100030.63;5039588;28;20315;-84
2022/03/25 06:45:52;;;;;;;;;;;;;;;15.41;26.65;100033.59;5007120;28;19921;-84
2022/03/25 06:48:18;;;;;;;;;;;;;;;15.31;26.24;100035.69;5039939;28;20015;-84
2022/03/25 06:50:43;;;;;;;;;;;;;;;15.43;26.32;100029.16;5006656;28;19933;-84
2022/03/25 06:53:09;;;;;;;;;;;;;;;15.66;26.68;100027.56;5007426;28;19922;-84
2022/03/25 06:55:35;;;;;;;;;;;;;;;15.51;26.63;100029.78;5007227;28;19921;-85
2022/03/25 06:58:01;;;;;;;;;;;;;;;15.70;26.59;100030.06;5006702;28;19922;-84
2022/03/25 07:00:27;;;;;;;;;;;;;;;15.97;26.56;100024.81;5007261;28;19928;-84
2022/03/25 07:02:52;;;;;;;;;;;;;;;16.20;26.35;100015.25;5009279;28;20727;-84
2022/03/25 07:05:18;;;;;;;;;;;;;;;16.49;26.55;100022.25;5011487;28;19921;-84
2022/03/25 07:07:44;;;;;;;;;;;;;;;16.34;25.55;100033.41;5010724;28;19917;-84
2022/03/25 07:10:10;;;;;;;;;;;;;;;15.99;25.87;100015.03;5011614;28;19972;-84
2022/03/25 07:12:40;;;;;;;;;;;;;;;16.61;25.72;100028.97;5011405;28;19924;-84
2022/03/25 07:15:07;;;;;;;;;;;;;;;17.03;23.63;100020.38;5011430;28;20462;-84
2022/03/25 07:17:32;;;;;;;;;;;;;;;17.49;23.98;100016.00;5010640;28;19928;-83
2022/03/25 07:19:57;;;;;;;;;;;;;;;17.85;23.38;100022.63;5010836;28;19914;-84
2022/03/25 07:22:23;;;;;;;;;;;;;;;17.54;22.96;100013.16;5011049;28;20311;-84
2022/03/25 07:24:48;;;;;;;;;;;;;;;17.89;22.96;100019.81;5010640;28;20315;-85
2022/03/25 07:27:13;;;;;;;;;;;;;;;18.42;22.85;100012.31;5010294;28;20489;-84
2022/03/25 07:29:39;;;;;;;;;;;;;;;18.57;22.64;100022.34;5026285;28;20365;-84
2022/03/25 07:32:04;;;;;;;;;;;;;;;18.83;22.68;100012.34;5027056;28;19921;-84
2022/03/25 07:34:31;;;;;;;;;;;;;;;19.18;22.49;100015.25;5010458;28;19921;-84
2022/03/25 07:36:57;;;;;;;;;;;;;;;19.65;22.56;100017.53;5011055;28;19921;-84
2022/03/25 07:39:22;;;;;;;;;;;;;;;19.52;21.14;100007.47;5010275;28;19928;-84
2022/03/25 07:41:47;;;;;;;;;;;;;;;19.43;21.59;100006.97;5011009;28;19917;-83
2022/03/25 07:44:13;;;;;;;;;;;;;;;19.38;22.06;100005.44;5010090;28;19925;-83
2022/03/25 07:46:38;;;;;;;;;;;;;;;19.53;21.98;100006.53;5010411;28;19929;-82
2022/03/25 07:49:03;;;;;;;;;;;;;;;19.72;23.02;100001.19;5009857;28;19936;-83
2022/03/25 07:51:29;;;;;;;;;;;;;;;20.11;21.43;99987.69;5010099;28;19925;-83
2022/03/25 07:53:54;;;;;;;;;;;;;;;19.97;21.29;99979.47;5009823;28;20403;-82
2022/03/25 07:56:20;;;;;;;;;;;;;;;19.78;21.17;99987.53;5009743;28;20808;-83
2022/03/25 07:58:46;;;;;;;;;;;;;;;19.58;22.21;99985.78;5010526;28;19922;-82
2022/03/25 08:01:11;;;;;;;;;;;;;;;19.41;22.68;99975.88;5010029;28;19929;-83
2022/03/25 08:03:36;;;;;;;;;;;;;;;19.46;20.99;99979.19;5010314;28;20043;-83
2022/03/25 08:06:03;;;;;;;;;;;;;;;19.36;21.46;99985.94;5009360;28;20776;-83
2022/03/25 08:08:28;;;;;;;;;;;;;;;19.37;21.76;99969.81;5010732;28;19922;-82
2022/03/25 08:10:55;;;;;;;;;;;;;;;18.96;20.11;99975.25;5010719;28;19971;-83
2022/03/25 08:13:21;;;;;;;;;;;;;;;19.20;19.71;99967.94;5009195;28;19925;-82
2022/03/25 08:15:46;;;;;;;;;;;;;;;19.38;21.74;99974.22;5009888;28;19928;-82
2022/03/25 08:18:13;;;;;;;;;;;;;;;19.33;19.70;99968.22;5009437;28;19924;-82
2022/03/25 08:20:39;;;;;;;;;;;;;;;19.23;20.48;99953.53;5010611;28;20028;-82
2022/03/25 08:23:06;;;;;;;;;;;;;;;18.46;19.96;99955.16;5008966;28;20319;-81
2022/03/25 08:28:15;;;;;;;;;;;;;;;18.61;20.16;99956.28;5010040;28;19947;-84
2022/03/25 08:30:42;;;;;;;;;;;;;;;18.72;20.97;99962.03;5009707;28;19923;-83
2022/03/25 08:33:08;;;;;;;;;;;;;;;19.13;20.42;99955.78;5010403;28;20538;-84
2022/03/25 08:35:35;;;;;;;;;;;;;;;18.91;19.91;99946.06;5041315;28;20304;-84
2022/03/25 08:38:00;;;;;;;;;;;;;;;18.98;20.81;99940.44;5009591;28;19928;-83
2022/03/25 08:40:26;;;;;;;;;;;;;;;19.01;20.81;99941.16;5009005;28;19921;-84
2022/03/25 08:42:53;;;;;;;;;;;;;;;19.04;20.89;99924.97;5009689;28;19921;-84
2022/03/25 08:45:19;;;;;;;;;;;;;;;19.09;20.01;99931.00;5009784;28;19976;-85
2022/03/25 08:47:44;;;;;;;;;;;;;;;19.14;19.43;99936.13;5009214;28;19976;-84
2022/03/25 08:50:12;;;;;;;;;;;;;;;19.18;20.17;99934.16;5009607;28;20106;-84
2022/03/25 08:52:38;;;;;;;;;;;;;;;19.36;19.32;99925.28;5008822;28;19987;-83
2022/03/25 08:55:04;;;;;;;;;;;;;;;19.20;19.26;99926.94;5010129;28;19959;-84
2022/03/25 08:57:30;;;;;;;;;;;;;;;18.89;18.99;99918.56;5040886;28;20408;-85
2022/03/25 08:59:55;;;;;;;;;;;;;;;19.06;19.39;99907.09;5009057;28;19957;-84
2022/03/25 09:02:22;;;;;;;;;;;;;;;19.22;19.46;99896.53;5009382;28;19944;-84
2022/03/25 09:04:47;;;;;;;;;;;;;;;19.25;20.10;99908.88;5009925;28;20008;-84
2022/03/25 09:07:13;;;;;;;;;;;;;;;19.53;19.67;99897.72;5008793;28;20020;-84
2022/03/25 09:09:38;;;;;;;;;;;;;;;19.64;21.71;99897.19;5009542;28;19932;-84
2022/03/25 09:12:04;;;;;;;;;;;;;;;19.88;19.76;99891.56;5009109;28;19917;-84
2022/03/25 09:14:29;;;;;;;;;;;;;;;20.08;19.17;99885.22;5009457;28;19928;-84
2022/03/25 09:16:55;;;;;;;;;;;;;;;19.49;19.33;99885.41;5009787;28;20004;-84
2022/03/25 09:19:20;;;;;;;;;;;;;;;19.56;19.47;99877.97;5041186;28;20292;-84
2022/03/25 09:21:45;;;;;;;;;;;;;;;19.66;18.48;99896.19;5009336;28;19917;-85
2022/03/25 09:24:10;;;;;;;;;;;;;;;19.60;18.85;99884.91;5008887;28;19926;-84
2022/03/25 09:26:36;;;;;;;;;;;;;;;19.72;18.79;99892.31;5009046;28;19922;-84
2022/03/25 09:29:02;;;;;;;;;;;;;;;19.65;19.19;99880.19;5008831;28;19921;-84
2022/03/25 09:31:27;;;;;;;;;;;;;;;19.85;18.81;99885.44;5008958;28;19967;-84
2022/03/25 09:35:08;;;;;;;;;;;;;;;20.29;19.73;99892.13;5009236;28;19925;-84
2022/03/25 09:36:37;;;;;;;;;;;;;;;19.95;18.25;99890.34;5008748;28;19968;-84
2022/03/25 09:39:03;;;;;;;;;;;;;;;19.84;18.72;99896.22;5008587;28;19988;-83
2022/03/25 09:41:29;;;;;;;;;;;;;;;19.97;17.98;99899.16;5008548;28;19922;-86
2022/03/25 09:43:55;;;;;;;;;;;;;;;19.87;19.24;99876.47;5040157;28;19956;-85
2022/03/25 09:46:20;;;;;;;;;;;;;;;19.92;21.14;99894.03;5008614;28;19980;-85
2022/03/25 09:48:46;;;;;;;;;;;;;;;20.01;18.98;99879.31;5040729;28;19922;-84
2022/03/25 09:51:12;;;;;;;;;;;;;;;20.36;20.34;99847.16;5008930;28;20396;-84
2022/03/25 09:53:38;;;;;;;;;;;;;;;20.11;21.17;99883.25;5008837;28;19921;-85
2022/03/25 09:56:03;;;;;;;;;;;;;;;20.14;21.72;99896.50;5040162;28;19918;-84
2022/03/25 09:58:29;;;;;;;;;;;;;;;20.23;21.94;99888.91;5041198;28;20494;-85
2022/03/25 10:00:54;;;;;;;;;;;;;;;20.51;21.54;99873.13;5023532;28;20404;-85
2022/03/25 10:03:33;;;;;;;;;;;;;;;20.64;19.79;99873.34;4988918;28;19922;-86
2022/03/25 10:05:59;;;;;;;;;;;;;;;20.67;21.36;99867.84;4996543;28;19925;-85
2022/03/25 10:08:29;;;;;;;;;;;;;;;20.67;21.08;99873.19;5023520;28;19924;-83
2022/03/25 10:10:54;;;;;;;;;;;;;;;20.33;20.10;99874.09;5007785;28;19921;-83
2022/03/25 10:13:19;;;;;;;;;;;;;;;20.42;20.46;99878.09;5008287;28;19948;-84
2022/03/25 10:15:45;;;;;;;;;;;;;;;20.55;20.65;99873.81;5007540;28;19972;-83
2022/03/25 10:18:10;;;;;;;;;;;;;;;20.57;20.66;99863.88;5039699;28;19925;-84
2022/03/25 10:20:40;;;;;;;;;;;;;;;20.75;17.96;99856.69;5008100;28;20465;-83
2022/03/25 10:23:18;;;;;;;;;;;;;;;20.92;19.08;99871.84;5007168;28;19925;-84
2022/03/25 10:25:48;;;;;;;;;;;;;;;20.87;18.73;99871.25;5008294;28;19925;-85
2022/03/25 10:28:34;;;;;;;;;;;;;;;20.40;18.71;99878.19;5039432;28;20284;-85
2022/03/25 10:30:59;;;;;;;;;;;;;;;20.67;18.43;99859.78;5040793;28;19971;-85
2022/03/25 10:33:31;;;;;;;;;;;;;;;20.66;17.89;99862.56;5008113;28;19957;-85
2022/03/25 10:36:09;;;;;;;;;;;;;;;20.18;16.79;99871.25;5007085;28;19932;-85
2022/03/25 10:38:48;;;;;;;;;;;;;;;20.13;16.87;99876.00;5007528;28;19952;-86
2022/03/25 10:41:15;;;;;;;;;;;;;;;20.18;16.30;99871.25;5008044;28;19922;-85
2022/03/25 10:44:08;;;;;;;;;;;;;;;20.04;17.07;99866.63;5007125;28;19983;-85
2022/03/25 10:46:41;;;;;;;;;;;;;;;20.11;15.35;99864.53;5008558;28;20465;-87
2022/03/25 10:49:11;;;;;;;;;;;;;;;20.13;15.85;99848.38;5021964;28;19928;-86
2022/03/25 10:51:56;;;;;;;;;;;;;;;19.98;16.03;99850.88;5021806;28;20437;-87
2022/03/25 10:54:23;;;;;;;;;;;;;;;20.02;16.44;99848.94;5006961;28;19926;-87
2022/03/25 10:56:49;;;;;;;;;;;;;;;20.06;16.74;99860.34;5007107;28;20783;-86
2022/03/25 10:59:22;;;;;;;;;;;;;;;19.75;15.51;99878.78;5023223;28;19925;-88
2022/03/25 11:01:50;;;;;;;;;;;;;;;19.72;15.23;99856.66;5007605;28;19922;-87
2022/03/25 11:04:16;;;;;;;;;;;;;;;20.15;15.66;99854.50;5039174;28;19979;-85
2022/03/25 11:06:42;;;;;;;;;;;;;;;19.91;14.67;99845.91;5006682;28;19933;-87
2022/03/25 11:09:10;;;;;;;;;;;;;;;19.92;14.57;99861.03;5007281;28;19914;-86
2022/03/25 11:11:37;;;;;;;;;;;;;;;19.88;13.79;99844.28;5007392;28;19921;-85
2022/03/25 11:14:04;;;;;;;;;;;;;;;20.16;14.70;99845.53;5006991;28;19926;-85
2022/03/25 11:16:32;;;;;;;;;;;;;;;20.63;15.40;99836.75;5007489;28;19924;-87
2022/03/25 11:18:57;;;;;;;;;;;;;;;20.34;13.76;99832.97;5006858;28;19921;-87
2022/03/25 11:21:23;;;;;;;;;;;;;;;20.40;14.11;99835.31;5007284;28;19975;-86
2022/03/25 11:23:51;;;;;;;;;;;;;;;20.38;14.63;99839.91;5007111;28;19964;-85
2022/03/25 11:26:19;;;;;;;;;;;;;;;20.34;13.90;99835.63;5007045;28;19932;-83
2022/03/25 11:28:45;;;;;;;;;;;;;;;20.35;14.15;99830.19;5007688;28;19921;-84
2022/03/25 11:31:11;;;;;;;;;;;;;;;20.69;14.04;99846.31;5007155;28;19928;-83
2022/03/25 11:33:55;;;;;;;;;;;;;;;20.45;13.85;99824.34;5007526;28;19917;-83
2022/03/25 11:36:24;;;;;;;;;;;;;;;20.08;12.46;99842.38;5007076;28;19917;-82
2022/03/25 11:39:09;;;;;;;;;;;;;;;20.12;12.36;99835.91;5007138;28;19964;-83
2022/03/25 11:41:34;;;;;;;;;;;;;;;20.11;12.20;99821.69;5022543;28;20005;-84
2022/03/25 11:44:15;;;;;;;;;;;;;;;20.06;12.27;99829.06;5007690;28;20008;-83
2022/03/25 11:47:02;;;;;;;;;;;;;;;19.90;12.02;99834.34;5007029;28;19983;-84
2022/03/25 11:49:31;;;;;;;;;;;;;;;20.02;12.25;99830.19;5009875;28;20395;-82
2022/03/25 11:51:56;;;;;;;;;;;;;;;20.21;12.31;99817.53;5010860;28;20008;-83
2022/03/25 11:54:41;;;;;;;;;;;;;;;20.06;11.84;99822.84;5010694;28;20012;-83
2022/03/25 11:57:20;;;;;;;;;;;;;;;20.24;11.72;99824.56;5010755;28;19941;-85
2022/03/25 11:59:49;;;;;;;;;;;;;;;20.33;11.65;99812.50;5010927;28;19972;-82
2022/03/25 12:02:24;;;;;;;;;;;;;;;20.20;12.17;99813.16;5010748;28;20514;-83
2022/03/25 12:04:49;;;;;;;;;;;;;;;20.32;12.05;99813.44;5010545;28;19921;-83
2022/03/25 12:07:16;;;;;;;;;;;;;;;20.30;11.25;99823.38;5009455;28;19932;-84
2022/03/25 12:09:43;;;;;;;;;;;;;;;20.37;12.21;99811.38;5010493;28;19921;-84
2022/03/25 12:12:09;;;;;;;;;;;;;;;20.71;12.75;99806.88;5010477;28;20400;-82
2022/03/25 12:14:36;;;;;;;;;;;;;;;20.42;11.52;99814.69;5009391;28;19932;-84
2022/03/25 12:17:03;;;;;;;;;;;;;;;20.52;11.43;99807.00;5010930;28;19918;-84
2022/03/25 12:19:28;;;;;;;;;;;;;;;20.41;11.44;99810.25;5009837;28;19918;-84
2022/03/25 12:22:04;;;;;;;;;;;;;;;20.18;11.06;99806.13;5041588;28;19929;-84
2022/03/25 12:24:30;;;;;;;;;;;;;;;20.18;11.87;99811.50;5009632;28;19926;-84
2022/03/25 12:26:58;;;;;;;;;;;;;;;20.30;12.04;99804.63;5009623;28;19932;-85
2022/03/25 12:29:31;;;;;;;;;;;;;;;20.52;11.89;99807.00;5010248;28;19917;-84
2022/03/25 12:31:57;;;;;;;;;;;;;;;20.45;11.38;99819.00;5010349;28;19917;-84
2022/03/25 12:34:34;;;;;;;;;;;;;;;20.36;12.15;99812.34;5009415;28;19975;-84
2022/03/25 12:37:02;;;;;;;;;;;;;;;20.48;12.64;99818.81;5010044;28;20352;-85
2022/03/25 12:39:30;;;;;;;;;;;;;;;20.17;12.35;99815.09;5009735;28;19956;-86
2022/03/25 12:41:56;;;;;;;;;;;;;;;20.32;12.26;99811.63;5041049;28;19928;-83
2022/03/25 12:44:28;;;;;;;;;;;;;;;20.31;12.47;99814.38;5009153;28;19929;-86
2022/03/25 12:46:56;;;;;;;;;;;;;;;20.28;11.88;99807.38;5009276;28;19928;-85